sensor_id;sensor_type;location;lat;lon;timestamp;pressure;altitude;pressure_sealevel;temperature;humidity
30021;BME280;16861;52.294;7.760;2023-05-16T00:00:58;99815.25;;;15.08;53.33
30021;BME280;16861;52.294;7.760;2023-05-16T00:03:26;99804.97;;;15.03;53.54
30021;BME280;16861;52.294;7.760;2023-05-16T00:05:53;99802.69;;;14.98;53.42
30021;BME280;16861;52.294;7.760;2023-05-16T00:08:19;99809.19;;;14.94;53.62
30021;BME280;16861;52.294;7.760;2023-05-16T00:10:46;99814.00;;;14.89;53.80
30021;BME280;16861;52.294;7.760;2023-05-16T00:13:12;99815.16;;;14.85;53.83
30021;BME280;16861;52.294;7.760;2023-05-16T00:15:39;99820.91;;;14.79;53.99
30021;BME280;16861;52.294;7.760;2023-05-16T00:18:05;99820.28;;;14.75;54.15
30021;BME280;16861;52.294;7.760;2023-05-16T00:20:32;99819.66;;;14.71;54.30
30021;BME280;16861;52.294;7.760;2023-05-16T00:22:59;99835.78;;;14.68;54.37
30021;BME280;16861;52.294;7.760;2023-05-16T00:25:26;99833.44;;;14.64;54.20
30021;BME280;16861;52.294;7.760;2023-05-16T00:27:54;99836.44;;;14.59;54.08
30021;BME280;16861;52.294;7.760;2023-05-16T00:30:20;99829.91;;;14.52;53.81
30021;BME280;16861;52.294;7.760;2023-05-16T00:32:48;99834.78;;;14.45;54.05
30021;BME280;16861;52.294;7.760;2023-05-16T00:35:14;99836.06;;;14.39;54.23
30021;BME280;16861;52.294;7.760;2023-05-16T00:37:41;99838.31;;;14.32;54.26
30021;BME280;16861;52.294;7.760;2023-05-16T00:43:31;99838.88;;;14.25;54.18
30021;BME280;16861;52.294;7.760;2023-05-16T00:45:58;99832.97;;;14.21;54.44
30021;BME280;16861;52.294;7.760;2023-05-16T00:48:25;99841.97;;;14.18;54.53
30021;BME280;16861;52.294;7.760;2023-05-16T00:50:52;99845.56;;;14.17;54.74
30021;BME280;16861;52.294;7.760;2023-05-16T00:53:19;99837.00;;;14.14;54.60
30021;BME280;16861;52.294;7.760;2023-05-16T00:55:46;99846.00;;;14.11;54.70
30021;BME280;16861;52.294;7.760;2023-05-16T00:58:13;99840.91;;;14.08;55.01
30021;BME280;16861;52.294;7.760;2023-05-16T01:00:41;99845.38;;;14.07;55.04
30021;BME280;16861;52.294;7.760;2023-05-16T01:03:08;99847.16;;;14.07;55.05
30021;BME280;16861;52.294;7.760;2023-05-16T01:05:34;99846.19;;;14.08;54.96
30021;BME280;16861;52.294;7.760;2023-05-16T01:08:01;99848.75;;;14.10;55.11
30021;BME280;16861;52.294;7.760;2023-05-16T01:10:37;99842.84;;;14.06;55.99
30021;BME280;16861;52.294;7.760;2023-05-16T01:13:11;99837.53;;;14.06;55.86
30021;BME280;16861;52.294;7.760;2023-05-16T01:15:42;99847.16;;;14.07;54.85
30021;BME280;16861;52.294;7.760;2023-05-16T01:18:21;99850.53;;;14.09;55.58
30021;BME280;16861;52.294;7.760;2023-05-16T01:21:01;99855.97;;;14.07;55.64
30021;BME280;16861;52.294;7.760;2023-05-16T01:28:45;99857.97;;;14.04;55.16
30021;BME280;16861;52.294;7.760;2023-05-16T01:31:12;99863.25;;;14.04;54.98
30021;BME280;16861;52.294;7.760;2023-05-16T01:33:39;99859.78;;;14.03;55.25
30021;BME280;16861;52.294;7.760;2023-05-16T01:38:41;99862.63;;;14.00;55.68
30021;BME280;16861;52.294;7.760;2023-05-16T01:43:45;99862.00;;;13.97;55.24
30021;BME280;16861;52.294;7.760;2023-05-16T01:46:14;99865.59;;;13.96;55.34
30021;BME280;16861;52.294;7.760;2023-05-16T01:51:29;99877.44;;;13.90;55.29
30021;BME280;16861;52.294;7.760;2023-05-16T01:54:02;99880.22;;;13.88;55.18
30021;BME280;16861;52.294;7.760;2023-05-16T01:56:31;99879.56;;;13.85;54.95
30021;BME280;16861;52.294;7.760;2023-05-16T01:58:59;99870.91;;;13.83;55.16
30021;BME280;16861;52.294;7.760;2023-05-16T02:01:28;99887.84;;;13.80;55.59
30021;BME280;16861;52.294;7.760;2023-05-16T02:03:57;99888.75;;;13.79;55.48
30021;BME280;16861;52.294;7.760;2023-05-16T02:06:23;99889.72;;;13.78;55.40
30021;BME280;16861;52.294;7.760;2023-05-16T02:08:51;99887.06;;;13.78;55.37
30021;BME280;16861;52.294;7.760;2023-05-16T02:11:17;99879.38;;;13.75;55.37
30021;BME280;16861;52.294;7.760;2023-05-16T02:13:44;99885.69;;;13.72;55.22
30021;BME280;16861;52.294;7.760;2023-05-16T02:16:11;99885.91;;;13.69;55.27
30021;BME280;16861;52.294;7.760;2023-05-16T02:18:37;99895.84;;;13.65;55.32
30021;BME280;16861;52.294;7.760;2023-05-16T02:21:04;99894.34;;;13.61;55.43
30021;BME280;16861;52.294;7.760;2023-05-16T02:23:31;99892.75;;;13.59;55.05
30021;BME280;16861;52.294;7.760;2023-05-16T02:25:58;99883.25;;;13.56;55.11
30021;BME280;16861;52.294;7.760;2023-05-16T02:28:24;99882.72;;;13.51;54.87
30021;BME280;16861;52.294;7.760;2023-05-16T02:30:57;99885.84;;;13.43;55.87
30021;BME280;16861;52.294;7.760;2023-05-16T02:33:25;99885.19;;;13.39;55.04
30021;BME280;16861;52.294;7.760;2023-05-16T02:35:53;99893.34;;;13.36;55.00
30021;BME280;16861;52.294;7.760;2023-05-16T02:38:20;99888.44;;;13.30;55.01
30021;BME280;16861;52.294;7.760;2023-05-16T02:40:47;99895.75;;;13.26;55.02
30021;BME280;16861;52.294;7.760;2023-05-16T02:43:14;99891.50;;;13.24;55.12
30021;BME280;16861;52.294;7.760;2023-05-16T02:45:41;99899.63;;;13.21;55.41
30021;BME280;16861;52.294;7.760;2023-05-16T02:48:07;99904.19;;;13.19;55.13
30021;BME280;16861;52.294;7.760;2023-05-16T02:50:34;99909.66;;;13.15;55.10
30021;BME280;16861;52.294;7.760;2023-05-16T02:53:01;99914.19;;;13.13;55.17
30021;BME280;16861;52.294;7.760;2023-05-16T02:55:28;99920.63;;;13.09;55.04
30021;BME280;16861;52.294;7.760;2023-05-16T02:57:54;99910.28;;;13.06;54.99
30021;BME280;16861;52.294;7.760;2023-05-16T03:00:21;99917.53;;;13.02;54.96
30021;BME280;16861;52.294;7.760;2023-05-16T03:02:48;99918.69;;;12.98;54.91
30021;BME280;16861;52.294;7.760;2023-05-16T03:05:15;99928.59;;;12.95;54.95
30021;BME280;16861;52.294;7.760;2023-05-16T03:07:42;99920.13;;;12.89;54.77
30021;BME280;16861;52.294;7.760;2023-05-16T03:10:09;99929.28;;;12.84;54.55
30021;BME280;16861;52.294;7.760;2023-05-16T03:12:35;99923.56;;;12.77;54.74
30021;BME280;16861;52.294;7.760;2023-05-16T03:15:02;99922.16;;;12.71;54.53
30021;BME280;16861;52.294;7.760;2023-05-16T03:17:29;99926.97;;;12.64;54.69
30021;BME280;16861;52.294;7.760;2023-05-16T03:19:56;99936.25;;;12.57;54.59
30021;BME280;16861;52.294;7.760;2023-05-16T03:22:22;99936.63;;;12.51;54.49
30021;BME280;16861;52.294;7.760;2023-05-16T03:24:49;99933.59;;;12.43;54.54
30021;BME280;16861;52.294;7.760;2023-05-16T03:27:15;99938.50;;;12.34;54.55
30021;BME280;16861;52.294;7.760;2023-05-16T03:29:42;99946.81;;;12.28;54.69
30021;BME280;16861;52.294;7.760;2023-05-16T03:32:10;99948.13;;;12.21;54.77
30021;BME280;16861;52.294;7.760;2023-05-16T03:34:37;99943.22;;;12.15;54.89
30021;BME280;16861;52.294;7.760;2023-05-16T03:37:03;99955.72;;;12.11;55.33
30021;BME280;16861;52.294;7.760;2023-05-16T03:39:30;99951.69;;;12.05;54.93
30021;BME280;16861;52.294;7.760;2023-05-16T03:41:56;99962.41;;;12.02;55.09
30021;BME280;16861;52.294;7.760;2023-05-16T03:44:23;99960.97;;;11.96;54.95
30021;BME280;16861;52.294;7.760;2023-05-16T03:46:49;99963.03;;;11.91;55.39
30021;BME280;16861;52.294;7.760;2023-05-16T03:49:16;99963.28;;;11.86;55.06
30021;BME280;16861;52.294;7.760;2023-05-16T03:51:45;99969.81;;;11.81;55.53
30021;BME280;16861;52.294;7.760;2023-05-16T03:54:13;99967.44;;;11.76;55.21
30021;BME280;16861;52.294;7.760;2023-05-16T03:56:40;99967.69;;;11.71;55.10
30021;BME280;16861;52.294;7.760;2023-05-16T03:59:06;99974.94;;;11.68;55.24
30021;BME280;16861;52.294;7.760;2023-05-16T04:01:33;99978.69;;;11.64;55.49
30021;BME280;16861;52.294;7.760;2023-05-16T04:04:00;99980.66;;;11.60;55.33
30021;BME280;16861;52.294;7.760;2023-05-16T04:06:26;99981.78;;;11.56;55.51
30021;BME280;16861;52.294;7.760;2023-05-16T04:08:53;99987.22;;;11.53;55.49
30021;BME280;16861;52.294;7.760;2023-05-16T04:11:19;99990.00;;;11.50;55.45
30021;BME280;16861;52.294;7.760;2023-05-16T04:13:47;99987.56;;;11.46;55.52
30021;BME280;16861;52.294;7.760;2023-05-16T04:16:13;99993.97;;;11.42;55.39
30021;BME280;16861;52.294;7.760;2023-05-16T04:18:40;99991.50;;;11.39;55.36
30021;BME280;16861;52.294;7.760;2023-05-16T04:21:07;100001.38;;;11.36;55.47
30021;BME280;16861;52.294;7.760;2023-05-16T04:23:36;100004.09;;;11.34;55.59
30021;BME280;16861;52.294;7.760;2023-05-16T04:26:02;100003.41;;;11.30;55.56
30021;BME280;16861;52.294;7.760;2023-05-16T04:28:29;100005.28;;;11.28;55.75
30021;BME280;16861;52.294;7.760;2023-05-16T04:30:56;100003.56;;;11.27;55.70
30021;BME280;16861;52.294;7.760;2023-05-16T04:33:23;100012.31;;;11.28;56.02
30021;BME280;16861;52.294;7.760;2023-05-16T04:35:49;100009.69;;;11.28;55.85
30021;BME280;16861;52.294;7.760;2023-05-16T04:38:18;100011.41;;;11.29;55.89
30021;BME280;16861;52.294;7.760;2023-05-16T04:40:44;100012.22;;;11.29;55.85
30021;BME280;16861;52.294;7.760;2023-05-16T04:43:11;100016.59;;;11.30;55.75
30021;BME280;16861;52.294;7.760;2023-05-16T04:45:38;100014.88;;;11.29;56.01
30021;BME280;16861;52.294;7.760;2023-05-16T04:48:04;100020.13;;;11.29;56.10
30021;BME280;16861;52.294;7.760;2023-05-16T04:50:31;100017.50;;;11.29;56.10
30021;BME280;16861;52.294;7.760;2023-05-16T04:52:58;100015.72;;;11.30;56.05
30021;BME280;16861;52.294;7.760;2023-05-16T04:55:25;100025.31;;;11.31;56.09
30021;BME280;16861;52.294;7.760;2023-05-16T04:57:52;100029.66;;;11.32;56.26
30021;BME280;16861;52.294;7.760;2023-05-16T05:00:19;100030.53;;;11.32;56.06
30021;BME280;16861;52.294;7.760;2023-05-16T05:02:45;100034.03;;;11.33;55.97
30021;BME280;16861;52.294;7.760;2023-05-16T05:05:12;100032.28;;;11.32;55.85
30021;BME280;16861;52.294;7.760;2023-05-16T05:07:39;100029.78;;;11.30;56.02
30021;BME280;16861;52.294;7.760;2023-05-16T05:10:06;100035.13;;;11.29;55.91
30021;BME280;16861;52.294;7.760;2023-05-16T05:12:34;100041.31;;;11.28;56.25
30021;BME280;16861;52.294;7.760;2023-05-16T05:15:01;100042.16;;;11.28;56.23
30021;BME280;16861;52.294;7.760;2023-05-16T05:17:28;100055.25;;;11.30;56.23
30021;BME280;16861;52.294;7.760;2023-05-16T05:19:55;100054.31;;;11.31;56.24
30021;BME280;16861;52.294;7.760;2023-05-16T05:22:21;100054.25;;;11.32;56.29
30021;BME280;16861;52.294;7.760;2023-05-16T05:24:48;100057.72;;;11.33;56.25
30021;BME280;16861;52.294;7.760;2023-05-16T05:27:14;100052.28;;;11.36;55.99
30021;BME280;16861;52.294;7.760;2023-05-16T05:29:41;100050.50;;;11.37;56.27
30021;BME280;16861;52.294;7.760;2023-05-16T05:32:07;100056.53;;;11.39;56.35
30021;BME280;16861;52.294;7.760;2023-05-16T05:34:34;100058.06;;;11.43;56.24
30021;BME280;16861;52.294;7.760;2023-05-16T05:37:01;100065.78;;;11.46;56.52
30021;BME280;16861;52.294;7.760;2023-05-16T05:39:27;100066.47;;;11.50;56.56
30021;BME280;16861;52.294;7.760;2023-05-16T05:41:54;100071.56;;;11.53;56.48
30021;BME280;16861;52.294;7.760;2023-05-16T05:44:20;100070.56;;;11.55;56.34
30021;BME280;16861;52.294;7.760;2023-05-16T05:46:47;100067.84;;;11.57;56.17
30021;BME280;16861;52.294;7.760;2023-05-16T05:49:14;100079.03;;;11.60;56.29
30021;BME280;16861;52.294;7.760;2023-05-16T05:51:41;100074.56;;;11.63;56.19
30021;BME280;16861;52.294;7.760;2023-05-16T05:54:09;100074.47;;;11.64;56.25
30021;BME280;16861;52.294;7.760;2023-05-16T05:56:35;100075.13;;;11.68;56.35
30021;BME280;16861;52.294;7.760;2023-05-16T05:59:02;100083.81;;;11.70;56.27
30021;BME280;16861;52.294;7.760;2023-05-16T06:01:29;100088.06;;;11.72;56.35
30021;BME280;16861;52.294;7.760;2023-05-16T06:03:55;100094.88;;;11.77;56.24
30021;BME280;16861;52.294;7.760;2023-05-16T06:06:23;100093.84;;;11.79;56.22
30021;BME280;16861;52.294;7.760;2023-05-16T06:08:50;100091.88;;;11.83;56.37
30021;BME280;16861;52.294;7.760;2023-05-16T06:11:17;100098.75;;;11.85;56.58
30021;BME280;16861;52.294;7.760;2023-05-16T06:13:44;100094.94;;;11.91;56.30
30021;BME280;16861;52.294;7.760;2023-05-16T06:16:10;100092.03;;;11.96;56.23
30021;BME280;16861;52.294;7.760;2023-05-16T06:18:37;100094.41;;;12.01;56.22
30021;BME280;16861;52.294;7.760;2023-05-16T06:21:04;100104.78;;;12.04;56.14
30021;BME280;16861;52.294;7.760;2023-05-16T06:23:32;100108.91;;;12.09;56.16
30021;BME280;16861;52.294;7.760;2023-05-16T06:25:58;100103.50;;;12.11;55.77
30021;BME280;16861;52.294;7.760;2023-05-16T06:28:25;100105.97;;;12.14;55.96
30021;BME280;16861;52.294;7.760;2023-05-16T06:30:52;100119.00;;;12.17;55.76
30021;BME280;16861;52.294;7.760;2023-05-16T06:33:18;100118.81;;;12.20;55.75
30021;BME280;16861;52.294;7.760;2023-05-16T06:35:45;100116.84;;;12.24;55.97
30021;BME280;16861;52.294;7.760;2023-05-16T06:38:14;100113.19;;;12.27;56.07
30021;BME280;16861;52.294;7.760;2023-05-16T06:40:40;100115.56;;;12.31;55.89
30021;BME280;16861;52.294;7.760;2023-05-16T06:43:07;100115.28;;;12.36;55.60
30021;BME280;16861;52.294;7.760;2023-05-16T06:45:34;100128.13;;;12.42;55.51
30021;BME280;16861;52.294;7.760;2023-05-16T06:48:00;100124.16;;;12.49;55.92
30021;BME280;16861;52.294;7.760;2023-05-16T06:50:27;100120.16;;;12.58;55.89
30021;BME280;16861;52.294;7.760;2023-05-16T06:52:54;100115.91;;;12.70;56.08
30021;BME280;16861;52.294;7.760;2023-05-16T06:55:20;100119.69;;;12.81;55.98
30021;BME280;16861;52.294;7.760;2023-05-16T06:57:47;100121.66;;;12.92;55.44
30021;BME280;16861;52.294;7.760;2023-05-16T07:00:14;100124.69;;;13.00;54.97
30021;BME280;16861;52.294;7.760;2023-05-16T07:02:41;100125.28;;;13.05;54.93
30021;BME280;16861;52.294;7.760;2023-05-16T07:05:10;100123.19;;;13.10;54.81
30021;BME280;16861;52.294;7.760;2023-05-16T07:07:36;100120.25;;;13.15;54.68
30021;BME280;16861;52.294;7.760;2023-05-16T07:10:03;100123.47;;;13.20;54.54
30021;BME280;16861;52.294;7.760;2023-05-16T07:12:30;100123.19;;;13.25;54.41
30021;BME280;16861;52.294;7.760;2023-05-16T07:14:56;100115.81;;;13.30;54.24
30021;BME280;16861;52.294;7.760;2023-05-16T07:17:23;100120.72;;;13.36;54.17
30021;BME280;16861;52.294;7.760;2023-05-16T07:19:50;100126.47;;;13.43;54.20
30021;BME280;16861;52.294;7.760;2023-05-16T07:22:16;100132.16;;;13.51;53.88
30021;BME280;16861;52.294;7.760;2023-05-16T07:24:43;100126.56;;;13.56;53.27
30021;BME280;16861;52.294;7.760;2023-05-16T07:27:09;100135.06;;;13.61;52.72
30021;BME280;16861;52.294;7.760;2023-05-16T07:29:37;100131.47;;;13.62;52.76
30021;BME280;16861;52.294;7.760;2023-05-16T07:32:04;100130.53;;;13.63;52.55
30021;BME280;16861;52.294;7.760;2023-05-16T07:34:30;100137.50;;;13.64;52.31
30021;BME280;16861;52.294;7.760;2023-05-16T07:36:57;100146.41;;;13.63;51.90
30021;BME280;16861;52.294;7.760;2023-05-16T07:39:25;100137.59;;;13.63;52.00
30021;BME280;16861;52.294;7.760;2023-05-16T07:41:52;100141.09;;;13.63;52.18
30021;BME280;16861;52.294;7.760;2023-05-16T07:44:19;100144.41;;;13.67;52.62
30021;BME280;16861;52.294;7.760;2023-05-16T07:46:46;100137.88;;;13.73;53.09
30021;BME280;16861;52.294;7.760;2023-05-16T07:49:13;100143.31;;;13.84;53.21
30021;BME280;16861;52.294;7.760;2023-05-16T07:51:39;100146.09;;;13.96;52.48
30021;BME280;16861;52.294;7.760;2023-05-16T07:54:06;100138.41;;;14.05;52.83
30021;BME280;16861;52.294;7.760;2023-05-16T07:56:33;100149.16;;;14.17;52.42
30021;BME280;16861;52.294;7.760;2023-05-16T07:59:00;100152.78;;;14.29;52.34
30021;BME280;16861;52.294;7.760;2023-05-16T08:01:26;100152.19;;;14.38;52.22
30021;BME280;16861;52.294;7.760;2023-05-16T08:03:53;100149.88;;;14.46;51.41
30021;BME280;16861;52.294;7.760;2023-05-16T08:06:20;100155.78;;;14.50;50.91
30021;BME280;16861;52.294;7.760;2023-05-16T08:08:47;100164.50;;;14.52;50.63
30021;BME280;16861;52.294;7.760;2023-05-16T08:11:13;100155.69;;;14.52;50.46
30021;BME280;16861;52.294;7.760;2023-05-16T08:13:40;100150.50;;;14.50;50.71
30021;BME280;16861;52.294;7.760;2023-05-16T08:16:07;100151.25;;;14.52;50.95
30021;BME280;16861;52.294;7.760;2023-05-16T08:18:34;100151.88;;;14.56;51.40
30021;BME280;16861;52.294;7.760;2023-05-16T08:21:00;100149.78;;;14.61;51.04
30021;BME280;16861;52.294;7.760;2023-05-16T08:23:27;100153.72;;;14.68;51.05
30021;BME280;16861;52.294;7.760;2023-05-16T08:25:54;100143.47;;;14.77;51.10
30021;BME280;16861;52.294;7.760;2023-05-16T08:28:20;100143.03;;;14.83;50.24
30021;BME280;16861;52.294;7.760;2023-05-16T08:30:47;100146.22;;;14.88;49.89
30021;BME280;16861;52.294;7.760;2023-05-16T08:33:14;100142.53;;;14.91;49.62
30021;BME280;16861;52.294;7.760;2023-05-16T08:35:42;100145.81;;;14.94;49.88
30021;BME280;16861;52.294;7.760;2023-05-16T08:38:09;100155.13;;;15.00;50.13
30021;BME280;16861;52.294;7.760;2023-05-16T08:40:36;100145.69;;;15.09;50.45
30021;BME280;16861;52.294;7.760;2023-05-16T08:43:03;100143.03;;;15.22;50.05
30021;BME280;16861;52.294;7.760;2023-05-16T08:45:30;100145.75;;;15.33;49.67
30021;BME280;16861;52.294;7.760;2023-05-16T08:47:59;100140.03;;;15.40;48.54
30021;BME280;16861;52.294;7.760;2023-05-16T08:50:32;100139.69;;;15.44;48.68
30021;BME280;16861;52.294;7.760;2023-05-16T08:53:04;100144.06;;;15.45;47.98
30021;BME280;16861;52.294;7.760;2023-05-16T08:55:34;100148.50;;;15.45;48.77
30021;BME280;16861;52.294;7.760;2023-05-16T08:58:01;100141.41;;;15.45;49.01
30021;BME280;16861;52.294;7.760;2023-05-16T09:00:29;100135.84;;;15.48;49.52
30021;BME280;16861;52.294;7.760;2023-05-16T09:02:57;100143.28;;;15.56;49.48
30021;BME280;16861;52.294;7.760;2023-05-16T09:05:24;100139.84;;;15.67;49.03
30021;BME280;16861;52.294;7.760;2023-05-16T09:07:51;100136.28;;;15.80;49.17
30021;BME280;16861;52.294;7.760;2023-05-16T09:10:18;100142.31;;;15.95;49.02
30021;BME280;16861;52.294;7.760;2023-05-16T09:12:45;100138.03;;;16.05;47.75
30021;BME280;16861;52.294;7.760;2023-05-16T09:15:12;100142.66;;;16.14;47.14
30021;BME280;16861;52.294;7.760;2023-05-16T09:17:42;100138.69;;;16.20;47.26
30021;BME280;16861;52.294;7.760;2023-05-16T09:22:37;100138.72;;;16.32;47.38
30021;BME280;16861;52.294;7.760;2023-05-16T09:25:04;100141.66;;;16.40;47.40
30021;BME280;16861;52.294;7.760;2023-05-16T09:27:34;100147.88;;;16.52;47.97
30021;BME280;16861;52.294;7.760;2023-05-16T09:30:01;100138.81;;;16.66;47.82
30021;BME280;16861;52.294;7.760;2023-05-16T09:32:27;100144.78;;;16.81;47.53
30021;BME280;16861;52.294;7.760;2023-05-16T09:34:54;100142.97;;;16.93;46.74
30021;BME280;16861;52.294;7.760;2023-05-16T09:37:23;100133.56;;;17.00;46.41
30021;BME280;16861;52.294;7.760;2023-05-16T09:39:52;100138.63;;;17.03;45.64
30021;BME280;16861;52.294;7.760;2023-05-16T09:42:24;100138.63;;;17.03;45.39
30021;BME280;16861;52.294;7.760;2023-05-16T09:44:52;100141.28;;;17.03;45.94
30021;BME280;16861;52.294;7.760;2023-05-16T09:47:20;100144.69;;;17.05;46.50
30021;BME280;16861;52.294;7.760;2023-05-16T09:49:51;100148.22;;;17.06;45.54
30021;BME280;16861;52.294;7.760;2023-05-16T09:52:18;100138.91;;;17.12;46.11
30021;BME280;16861;52.294;7.760;2023-05-16T09:54:46;100141.31;;;17.15;45.91
30021;BME280;16861;52.294;7.760;2023-05-16T09:57:21;100143.03;;;17.16;45.68
30021;BME280;16861;52.294;7.760;2023-05-16T09:59:49;100140.97;;;17.19;45.59
30021;BME280;16861;52.294;7.760;2023-05-16T10:02:15;100149.81;;;17.20;45.92
30021;BME280;16861;52.294;7.760;2023-05-16T10:04:42;100148.09;;;17.19;46.19
30021;BME280;16861;52.294;7.760;2023-05-16T10:07:09;100133.84;;;17.20;45.89
30021;BME280;16861;52.294;7.760;2023-05-16T10:09:38;100138.06;;;17.23;45.88
30021;BME280;16861;52.294;7.760;2023-05-16T10:12:07;100130.56;;;17.28;45.89
30021;BME280;16861;52.294;7.760;2023-05-16T10:14:35;100131.78;;;17.35;45.59
30021;BME280;16861;52.294;7.760;2023-05-16T10:17:03;100134.53;;;17.45;45.61
30021;BME280;16861;52.294;7.760;2023-05-16T10:19:38;100125.78;;;17.54;44.88
30021;BME280;16861;52.294;7.760;2023-05-16T10:22:05;100146.09;;;17.67;45.57
30021;BME280;16861;52.294;7.760;2023-05-16T10:24:45;100142.84;;;17.75;43.67
30021;BME280;16861;52.294;7.760;2023-05-16T10:27:14;100139.16;;;17.87;43.79
30021;BME280;16861;52.294;7.760;2023-05-16T10:29:44;100142.19;;;17.94;43.61
30021;BME280;16861;52.294;7.760;2023-05-16T10:32:22;100135.03;;;17.94;43.22
30021;BME280;16861;52.294;7.760;2023-05-16T10:34:50;100131.53;;;17.94;42.96
30021;BME280;16861;52.294;7.760;2023-05-16T10:37:17;100135.16;;;17.93;43.64
30021;BME280;16861;52.294;7.760;2023-05-16T10:39:45;100126.66;;;17.99;43.59
30021;BME280;16861;52.294;7.760;2023-05-16T10:42:12;100117.53;;;18.13;44.92
30021;BME280;16861;52.294;7.760;2023-05-16T10:44:43;100122.66;;;18.38;44.45
30021;BME280;16861;52.294;7.760;2023-05-16T10:47:23;100112.63;;;18.72;44.69
30021;BME280;16861;52.294;7.760;2023-05-16T10:49:50;100122.97;;;19.18;44.90
30021;BME280;16861;52.294;7.760;2023-05-16T10:52:17;100123.81;;;19.70;44.91
30021;BME280;16861;52.294;7.760;2023-05-16T10:54:49;100121.47;;;20.26;42.00
30021;BME280;16861;52.294;7.760;2023-05-16T10:57:22;100121.94;;;20.89;42.32
30021;BME280;16861;52.294;7.760;2023-05-16T10:59:50;100133.38;;;21.47;41.18
30021;BME280;16861;52.294;7.760;2023-05-16T11:02:26;100116.38;;;22.03;39.89
30021;BME280;16861;52.294;7.760;2023-05-16T11:04:58;100120.63;;;22.50;37.18
30021;BME280;16861;52.294;7.760;2023-05-16T11:07:31;100119.09;;;22.74;35.20
30021;BME280;16861;52.294;7.760;2023-05-16T11:12:41;100122.81;;;22.73;35.32
30021;BME280;16861;52.294;7.760;2023-05-16T11:17:49;100121.53;;;22.41;36.80
30021;BME280;16861;52.294;7.760;2023-05-16T11:20:28;100116.38;;;22.21;35.71
30021;BME280;16861;52.294;7.760;2023-05-16T11:25:44;100118.38;;;22.00;35.89
30021;BME280;16861;52.294;7.760;2023-05-16T11:28:12;100127.72;;;21.96;36.69
30021;BME280;16861;52.294;7.760;2023-05-16T11:30:44;100118.00;;;21.95;36.56
30021;BME280;16861;52.294;7.760;2023-05-16T11:33:11;100118.13;;;22.12;37.60
30021;BME280;16861;52.294;7.760;2023-05-16T11:35:38;100124.31;;;22.31;36.13
30021;BME280;16861;52.294;7.760;2023-05-16T11:38:05;100122.53;;;22.39;35.55
30021;BME280;16861;52.294;7.760;2023-05-16T11:40:32;100126.81;;;22.32;34.80
30021;BME280;16861;52.294;7.760;2023-05-16T11:42:59;100133.22;;;22.13;34.57
30021;BME280;16861;52.294;7.760;2023-05-16T11:45:32;100139.88;;;21.91;34.97
30021;BME280;16861;52.294;7.760;2023-05-16T11:48:03;100134.72;;;21.79;36.26
30021;BME280;16861;52.294;7.760;2023-05-16T11:50:30;100139.88;;;21.91;37.25
30021;BME280;16861;52.294;7.760;2023-05-16T11:52:57;100132.44;;;22.21;37.58
30021;BME280;16861;52.294;7.760;2023-05-16T11:55:28;100135.09;;;22.57;36.60
30021;BME280;16861;52.294;7.760;2023-05-16T11:58:07;100140.13;;;22.87;35.57
30021;BME280;16861;52.294;7.760;2023-05-16T12:00:34;100143.06;;;22.94;34.39
30021;BME280;16861;52.294;7.760;2023-05-16T12:03:02;100154.91;;;22.83;33.92
30021;BME280;16861;52.294;7.760;2023-05-16T12:05:31;100143.00;;;22.59;32.86
30021;BME280;16861;52.294;7.760;2023-05-16T12:08:00;100136.25;;;22.36;34.26
30021;BME280;16861;52.294;7.760;2023-05-16T12:10:30;100136.72;;;22.32;36.08
30021;BME280;16861;52.294;7.760;2023-05-16T12:12:59;100138.38;;;22.51;35.97
30021;BME280;16861;52.294;7.760;2023-05-16T12:15:26;100139.97;;;22.88;35.97
30021;BME280;16861;52.294;7.760;2023-05-16T12:17:54;100144.28;;;23.34;35.67
30021;BME280;16861;52.294;7.760;2023-05-16T12:20:21;100136.84;;;23.71;33.91
30021;BME280;16861;52.294;7.760;2023-05-16T12:22:47;100136.66;;;23.89;32.31
30021;BME280;16861;52.294;7.760;2023-05-16T12:25:21;100143.91;;;23.80;31.12
30021;BME280;16861;52.294;7.760;2023-05-16T12:27:48;100147.88;;;23.60;31.22
30021;BME280;16861;52.294;7.760;2023-05-16T12:30:16;100148.88;;;23.24;31.48
30021;BME280;16861;52.294;7.760;2023-05-16T12:32:44;100149.84;;;22.80;31.42
30021;BME280;16861;52.294;7.760;2023-05-16T12:35:11;100157.19;;;22.33;31.44
30021;BME280;16861;52.294;7.760;2023-05-16T12:37:38;100151.59;;;21.90;32.22
30021;BME280;16861;52.294;7.760;2023-05-16T12:40:07;100158.81;;;21.61;33.99
30021;BME280;16861;52.294;7.760;2023-05-16T12:45:15;100146.41;;;21.88;35.75
30021;BME280;16861;52.294;7.760;2023-05-16T12:47:45;100143.91;;;22.31;35.34
30021;BME280;16861;52.294;7.760;2023-05-16T12:50:13;100143.41;;;22.72;35.05
30021;BME280;16861;52.294;7.760;2023-05-16T12:52:52;100146.91;;;22.99;33.59
30021;BME280;16861;52.294;7.760;2023-05-16T12:55:20;100158.25;;;23.11;33.88
30021;BME280;16861;52.294;7.760;2023-05-16T12:57:48;100167.06;;;23.03;33.62
30021;BME280;16861;52.294;7.760;2023-05-16T13:00:17;100169.00;;;22.85;33.23
30021;BME280;16861;52.294;7.760;2023-05-16T13:02:45;100165.16;;;22.61;33.29
30021;BME280;16861;52.294;7.760;2023-05-16T13:05:13;100167.59;;;22.36;33.82
30021;BME280;16861;52.294;7.760;2023-05-16T13:07:39;100174.28;;;22.13;34.06
30021;BME280;16861;52.294;7.760;2023-05-16T13:10:07;100168.91;;;21.95;34.06
30021;BME280;16861;52.294;7.760;2023-05-16T13:12:38;100170.44;;;21.80;34.42
30021;BME280;16861;52.294;7.760;2023-05-16T13:15:06;100164.56;;;21.66;34.81
30021;BME280;16861;52.294;7.760;2023-05-16T13:17:33;100167.00;;;21.59;35.24
30021;BME280;16861;52.294;7.760;2023-05-16T13:20:01;100163.16;;;21.62;36.02
30021;BME280;16861;52.294;7.760;2023-05-16T13:22:30;100165.50;;;21.75;35.92
30021;BME280;16861;52.294;7.760;2023-05-16T13:24:56;100170.81;;;21.85;35.61